createdAt,value
2019-01-20T00:01:59.407Z,8.30
2019-01-20T00:04:32.914Z,8.07
2019-01-20T00:07:06.666Z,8.17
2019-01-20T00:09:40.067Z,7.93
2019-01-20T00:12:11.166Z,7.40
2019-01-20T00:14:44.442Z,7.60
2019-01-20T00:17:16.769Z,9.50
2019-01-20T00:19:49.130Z,8.10
2019-01-20T00:22:21.636Z,9.40
2019-01-20T00:24:53.881Z,9.70
2019-01-20T00:27:25.219Z,16.50
2019-01-20T00:29:58.405Z,14.70
2019-01-20T00:32:29.682Z,14.00
2019-01-20T00:35:03.139Z,10.50
2019-01-20T00:37:34.392Z,8.53
2019-01-20T00:40:08.432Z,7.40
2019-01-20T00:42:39.634Z,7.40
2019-01-20T00:45:13.765Z,6.13
2019-01-20T00:47:55.156Z,6.30
2019-01-20T00:50:29.436Z,6.50
2019-01-20T00:53:00.961Z,5.43
2019-01-20T00:55:34.250Z,5.60
2019-01-20T00:58:05.945Z,6.43
2019-01-20T01:00:39.358Z,6.37
2019-01-20T01:03:10.686Z,7.37
2019-01-20T01:05:44.145Z,6.80
2019-01-20T01:08:15.529Z,6.03
2019-01-20T01:10:48.772Z,6.67
2019-01-20T01:13:20.177Z,7.17
2019-01-20T01:15:53.506Z,6.97
2019-01-20T01:18:25.744Z,7.13
2019-01-20T01:20:57.951Z,6.50
2019-01-20T01:23:30.689Z,6.13
2019-01-20T01:26:03.029Z,5.97
2019-01-20T01:28:35.421Z,5.97
2019-01-20T01:31:08.827Z,6.47
2019-01-20T01:33:40.260Z,6.00
2019-01-20T01:36:13.566Z,5.43
2019-01-20T01:38:44.892Z,5.20
2019-01-20T01:41:18.499Z,6.20
2019-01-20T01:43:49.862Z,5.67
2019-01-20T01:46:24.197Z,6.73
2019-01-20T01:48:55.445Z,6.40
2019-01-20T01:51:28.776Z,8.03
2019-01-20T01:54:00.175Z,8.47
2019-01-20T01:56:33.577Z,7.80
2019-01-20T01:59:05.125Z,7.60
2019-01-20T02:01:38.411Z,10.03
2019-01-20T02:04:09.831Z,9.60
2019-01-20T02:06:43.155Z,9.47
2019-01-20T02:09:17.487Z,10.93
2019-01-20T02:11:50.759Z,11.30
2019-01-20T02:14:22.323Z,10.90
2019-01-20T02:16:55.830Z,11.90
2019-01-20T02:19:28.113Z,10.40
2019-01-20T02:22:00.630Z,11.10
2019-01-20T02:24:33.106Z,10.67
2019-01-20T02:27:05.942Z,10.60
2019-01-20T02:29:37.149Z,11.40
2019-01-20T02:32:10.626Z,9.60
2019-01-20T02:34:42.004Z,9.77
2019-01-20T02:37:15.575Z,9.70
2019-01-20T02:39:46.948Z,9.70
2019-01-20T02:42:20.595Z,10.63
2019-01-20T02:44:51.894Z,9.60
2019-01-20T02:47:25.365Z,10.37
2019-01-20T02:49:56.830Z,11.10
2019-01-20T02:52:30.714Z,10.93
2019-01-20T02:55:01.985Z,9.53
2019-01-20T02:57:35.264Z,10.30
2019-01-20T03:00:08.166Z,9.33
2019-01-20T03:02:41.643Z,10.30
2019-01-20T03:05:13.337Z,10.30
2019-01-20T03:07:46.548Z,10.00
2019-01-20T03:10:21.463Z,8.23
2019-01-20T03:12:55.061Z,8.80
2019-01-20T03:15:26.421Z,8.00
2019-01-20T03:17:59.452Z,6.70
2019-01-20T03:20:32.162Z,5.67
2019-01-20T03:23:04.498Z,5.77
2019-01-20T03:25:37.091Z,5.40
2019-01-20T03:28:09.389Z,6.77
2019-01-20T03:30:40.540Z,5.13
2019-01-20T03:33:13.933Z,5.43
2019-01-20T03:35:45.358Z,5.23
2019-01-20T03:38:18.590Z,5.77
2019-01-20T03:40:49.569Z,6.57
2019-01-20T03:43:22.804Z,5.57
2019-01-20T03:45:54.228Z,5.83
2019-01-20T03:48:27.500Z,6.07
2019-01-20T03:50:58.654Z,5.10
2019-01-20T03:53:32.358Z,5.77
2019-01-20T03:56:04.158Z,5.47
2019-01-20T03:58:37.612Z,4.90
2019-01-20T04:01:08.865Z,6.30
2019-01-20T04:03:42.065Z,5.77
2019-01-20T04:06:13.210Z,4.73
2019-01-20T04:08:46.471Z,6.23
2019-01-20T04:11:20.709Z,5.47
2019-01-20T04:13:54.317Z,5.27
2019-01-20T04:16:26.591Z,6.00
2019-01-20T04:18:59.790Z,5.60
2019-01-20T04:21:32.340Z,5.87
2019-01-20T04:24:04.466Z,6.33
2019-01-20T04:26:36.777Z,6.63
2019-01-20T04:29:09.134Z,6.30
2019-01-20T04:31:40.471Z,6.50
2019-01-20T04:34:14.085Z,6.00
2019-01-20T04:36:45.448Z,5.80
2019-01-20T04:39:18.627Z,5.93
2019-01-20T04:41:49.936Z,6.30
2019-01-20T04:44:23.360Z,5.60
2019-01-20T04:46:54.723Z,5.70
2019-01-20T04:49:28.187Z,5.60
2019-01-20T04:51:59.547Z,6.57
2019-01-20T04:54:33.360Z,5.87
2019-01-20T04:57:04.492Z,6.30
2019-01-20T04:59:37.725Z,5.70
2019-01-20T05:02:11.241Z,6.30
2019-01-20T05:04:44.534Z,6.30
2019-01-20T05:07:15.962Z,6.10
2019-01-20T05:09:49.163Z,6.03
2019-01-20T05:12:21.878Z,5.27
2019-01-20T05:14:55.766Z,4.73
2019-01-20T05:17:27.240Z,4.80
2019-01-20T05:20:00.495Z,4.87
2019-01-20T05:22:31.833Z,4.90
2019-01-20T05:25:05.484Z,5.30
2019-01-20T05:27:36.839Z,5.90
2019-01-20T05:30:12.016Z,6.20
2019-01-20T05:32:44.370Z,6.00
2019-01-20T05:35:17.884Z,6.30
2019-01-20T05:37:50.244Z,6.10
2019-01-20T05:40:22.687Z,6.03
2019-01-20T05:42:55.254Z,7.20
2019-01-20T05:45:27.698Z,7.90
2019-01-20T05:48:00.150Z,10.57
2019-01-20T05:50:32.481Z,8.90
2019-01-20T05:53:04.877Z,6.80
2019-01-20T05:55:37.546Z,7.33
2019-01-20T05:58:09.667Z,7.73
2019-01-20T06:00:42.015Z,6.40
2019-01-20T06:03:13.225Z,7.30
2019-01-20T06:05:46.244Z,6.67
2019-01-20T06:08:17.394Z,6.03
2019-01-20T06:10:50.580Z,7.53
2019-01-20T06:13:21.825Z,7.87
2019-01-20T06:15:55.141Z,9.80
2019-01-20T06:18:26.448Z,7.80
2019-01-20T06:21:00.912Z,6.57
2019-01-20T06:23:36.226Z,8.17
2019-01-20T06:26:09.542Z,5.67
2019-01-20T06:28:40.652Z,5.83
2019-01-20T06:31:14.045Z,5.90
2019-01-20T06:33:45.275Z,6.67
2019-01-20T06:36:18.351Z,6.30
2019-01-20T06:38:49.703Z,5.33
2019-01-20T06:41:23.183Z,5.90
2019-01-20T06:43:54.415Z,4.60
2019-01-20T06:46:27.845Z,6.00
2019-01-20T06:48:59.097Z,5.47
2019-01-20T06:51:32.677Z,5.70
2019-01-20T06:54:04.106Z,6.13
2019-01-20T06:56:37.629Z,5.80
2019-01-20T06:59:08.938Z,5.83
2019-01-20T07:01:42.016Z,5.10
2019-01-20T07:04:15.352Z,6.10
2019-01-20T07:06:47.681Z,5.17
2019-01-20T07:09:21.514Z,4.93
2019-01-20T07:11:56.271Z,5.30
2019-01-20T07:14:30.813Z,5.20
2019-01-20T07:17:03.906Z,5.83
2019-01-20T07:19:35.051Z,6.20
2019-01-20T07:22:08.712Z,6.13
2019-01-20T07:24:39.957Z,6.03
2019-01-20T07:27:13.148Z,5.87
2019-01-20T07:29:44.797Z,5.70
2019-01-20T07:32:18.339Z,6.13
2019-01-20T07:34:50.987Z,6.10
2019-01-20T07:37:23.453Z,9.00
2019-01-20T07:39:55.941Z,8.43
2019-01-20T07:42:28.314Z,7.93
2019-01-20T07:45:01.239Z,7.50
2019-01-20T07:47:33.841Z,6.93
2019-01-20T07:50:07.556Z,7.27
2019-01-20T07:52:39.983Z,7.90
2019-01-20T07:55:15.456Z,11.17
2019-01-20T07:57:47.771Z,15.30
2019-01-20T08:00:20.854Z,11.13
2019-01-20T08:02:53.248Z,10.80
2019-01-20T08:05:25.596Z,11.90
2019-01-20T08:07:58.269Z,11.77
2019-01-20T08:10:33.067Z,12.70
2019-01-20T08:13:06.484Z,12.27
2019-01-20T08:15:38.042Z,12.60
2019-01-20T08:18:11.426Z,11.13
2019-01-20T08:20:42.666Z,11.90
2019-01-20T08:23:15.983Z,12.90
2019-01-20T08:25:47.464Z,14.77
2019-01-20T08:28:20.776Z,12.97
2019-01-20T08:30:51.989Z,12.20
2019-01-20T08:33:25.451Z,10.93
2019-01-20T08:35:57.716Z,11.20
2019-01-20T08:38:30.853Z,9.37
2019-01-20T08:41:05.766Z,9.00
2019-01-20T08:43:39.531Z,10.00
2019-01-20T08:46:31.391Z,9.30
2019-01-20T08:49:05.043Z,8.83
2019-01-20T08:51:36.709Z,7.67
2019-01-20T08:54:09.827Z,8.37
2019-01-20T08:56:41.175Z,8.10
2019-01-20T08:59:14.846Z,9.10
2019-01-20T09:01:46.295Z,9.30
2019-01-20T09:04:19.818Z,9.60
2019-01-20T09:06:51.938Z,9.90
2019-01-20T09:09:24.291Z,10.30
2019-01-20T09:11:58.710Z,10.70
2019-01-20T09:14:32.570Z,8.30
2019-01-20T09:17:04.001Z,8.20
2019-01-20T09:19:37.740Z,7.93
2019-01-20T09:22:09.122Z,6.60
2019-01-20T09:24:43.061Z,6.50
2019-01-20T09:27:14.565Z,6.60
2019-01-20T09:29:48.219Z,6.97
2019-01-20T09:32:19.795Z,6.77
2019-01-20T09:34:52.960Z,6.60
2019-01-20T09:37:25.378Z,6.50
2019-01-20T09:39:57.620Z,6.37
2019-01-20T09:42:29.708Z,6.63
2019-01-20T09:45:01.967Z,6.73
2019-01-20T09:47:34.237Z,6.43
2019-01-20T09:50:07.186Z,6.33
2019-01-20T09:52:39.317Z,7.60
2019-01-20T09:55:11.664Z,11.10
2019-01-20T09:57:43.883Z,13.07
2019-01-20T10:00:17.156Z,9.13
2019-01-20T10:02:50.705Z,8.97
2019-01-20T10:05:23.197Z,9.30
2019-01-20T10:07:55.624Z,9.47
2019-01-20T10:10:28.262Z,9.07
2019-01-20T10:13:02.590Z,9.57
2019-01-20T10:15:36.246Z,10.90
2019-01-20T10:18:07.711Z,13.37
2019-01-20T10:20:41.154Z,15.43
2019-01-20T10:23:13.574Z,19.43
2019-01-20T10:25:46.157Z,23.60
2019-01-20T10:28:19.546Z,23.90
2019-01-20T10:30:51.647Z,24.40
2019-01-20T10:33:24.003Z,25.30
2019-01-20T10:36:01.392Z,24.90
2019-01-20T10:38:37.391Z,27.70
2019-01-20T10:41:10.749Z,27.67
2019-01-20T10:43:42.156Z,28.20
2019-01-20T10:46:16.628Z,28.43
2019-01-20T10:48:47.921Z,28.53
2019-01-20T10:51:21.330Z,29.70
2019-01-20T10:53:53.105Z,28.70
2019-01-20T10:56:26.333Z,27.80
2019-01-20T10:58:57.702Z,29.70
2019-01-20T11:01:31.178Z,29.13
2019-01-20T11:04:02.557Z,30.97
2019-01-20T11:06:35.794Z,29.53
2019-01-20T11:09:08.418Z,30.30
2019-01-20T11:11:40.902Z,29.20
2019-01-20T11:14:13.100Z,30.00
2019-01-20T11:16:45.496Z,29.90
2019-01-20T11:19:17.866Z,28.07
2019-01-20T11:21:50.376Z,25.50
2019-01-20T11:24:24.790Z,26.57
2019-01-20T11:26:58.088Z,26.70
2019-01-20T11:29:31.479Z,28.13
2019-01-20T11:32:04.643Z,27.43
2019-01-20T11:34:35.986Z,25.43
2019-01-20T11:37:07.377Z,25.53
2019-01-20T11:39:40.669Z,27.00
2019-01-20T11:42:12.122Z,27.50
2019-01-20T11:44:45.236Z,25.37
2019-01-20T11:47:16.364Z,25.57
2019-01-20T11:49:49.646Z,24.63
2019-01-20T11:52:20.955Z,26.50
2019-01-20T11:54:54.049Z,24.80
2019-01-20T11:57:25.173Z,27.23
2019-01-20T11:59:58.594Z,26.70
2019-01-20T12:02:29.947Z,26.87
2019-01-20T12:05:03.405Z,27.23
2019-01-20T12:07:34.933Z,32.17
2019-01-20T12:10:08.794Z,33.00
2019-01-20T12:12:40.818Z,31.17
2019-01-20T12:15:15.313Z,33.20
2019-01-20T12:17:46.509Z,30.40
2019-01-20T12:20:19.893Z,31.30
2019-01-20T12:22:51.196Z,33.03
2019-01-20T12:25:25.446Z,30.83
2019-01-20T12:27:59.765Z,32.40
2019-01-20T12:30:34.005Z,34.40
2019-01-20T12:33:05.375Z,33.43
2019-01-20T12:35:38.574Z,30.93
2019-01-20T12:38:09.812Z,34.87
2019-01-20T12:40:46.590Z,33.10
2019-01-20T12:43:18.088Z,33.53
2019-01-20T12:45:51.498Z,31.73
2019-01-20T12:48:22.676Z,33.80
2019-01-20T12:50:56.075Z,32.13
2019-01-20T12:53:27.361Z,33.90
2019-01-20T12:56:00.613Z,54.53
2019-01-20T12:58:31.821Z,33.40
2019-01-20T13:01:05.244Z,33.87
2019-01-20T13:03:36.673Z,33.30
2019-01-20T13:06:09.960Z,35.63
2019-01-20T13:08:41.226Z,33.90
2019-01-20T13:11:14.687Z,35.60
2019-01-20T13:13:46.137Z,44.53
2019-01-20T13:16:20.071Z,37.90
2019-01-20T13:18:51.380Z,49.73
2019-01-20T13:21:24.705Z,38.23
2019-01-20T13:23:56.133Z,35.63
2019-01-20T13:26:29.500Z,33.60
2019-01-20T13:29:00.824Z,32.00
2019-01-20T13:31:35.002Z,35.43
2019-01-20T13:34:06.967Z,34.93
2019-01-20T13:36:40.412Z,33.63
2019-01-20T13:39:13.054Z,32.83
2019-01-20T13:41:46.348Z,32.97
2019-01-20T13:44:17.896Z,32.00
2019-01-20T13:46:52.807Z,32.90
2019-01-20T13:49:24.055Z,38.37
2019-01-20T13:51:57.742Z,33.93
2019-01-20T13:54:29.307Z,31.13
2019-01-20T13:57:02.475Z,32.77
2019-01-20T13:59:33.919Z,32.13
2019-01-20T14:02:07.202Z,33.57
2019-01-20T14:04:38.529Z,36.13
2019-01-20T14:07:11.997Z,36.00
2019-01-20T14:09:43.589Z,35.53
2019-01-20T14:12:17.015Z,31.90
2019-01-20T14:14:53.909Z,36.27
2019-01-20T14:17:23.728Z,33.30
2019-01-20T14:19:54.953Z,33.23
2019-01-20T14:22:28.367Z,34.30
2019-01-20T14:24:59.639Z,31.90
2019-01-20T14:27:33.411Z,32.83
2019-01-20T14:30:04.831Z,30.83
2019-01-20T14:32:38.426Z,29.63
2019-01-20T14:35:10.320Z,31.40
2019-01-20T14:37:44.146Z,32.60
2019-01-20T14:40:18.745Z,31.80
2019-01-20T14:42:52.476Z,33.10
2019-01-20T14:45:23.974Z,32.57
2019-01-20T14:47:57.352Z,32.63
2019-01-20T14:50:28.927Z,32.03
2019-01-20T14:53:02.505Z,32.23
2019-01-20T14:55:33.873Z,31.20
2019-01-20T14:58:07.347Z,33.27
2019-01-20T15:00:38.878Z,32.50
2019-01-20T15:03:12.317Z,32.97
2019-01-20T15:05:43.577Z,32.57
2019-01-20T15:08:16.966Z,33.63
2019-01-20T15:10:48.481Z,33.77
2019-01-20T15:13:22.051Z,33.13
2019-01-20T15:15:53.077Z,35.50
2019-01-20T15:18:26.592Z,43.40
2019-01-20T15:20:57.952Z,35.80
2019-01-20T15:23:31.282Z,30.73
2019-01-20T15:26:04.892Z,32.83
2019-01-20T15:28:37.322Z,32.90
2019-01-20T15:31:09.922Z,32.60
2019-01-20T15:33:42.430Z,32.30
2019-01-20T15:36:14.988Z,31.70
2019-01-20T15:38:47.208Z,36.43
2019-01-20T15:41:18.507Z,34.83
2019-01-20T15:43:51.833Z,33.50
2019-01-20T15:46:22.947Z,37.10
2019-01-20T15:48:56.294Z,49.13
2019-01-20T15:51:27.788Z,49.30
2019-01-20T15:54:01.159Z,39.73
2019-01-20T15:56:34.314Z,39.53
2019-01-20T15:59:07.613Z,36.23
2019-01-20T16:01:39.066Z,37.53
2019-01-20T16:04:12.455Z,41.10
2019-01-20T16:06:43.865Z,39.57
2019-01-20T16:09:17.514Z,40.23
2019-01-20T16:11:48.856Z,38.93
2019-01-20T16:14:22.172Z,38.10
2019-01-20T16:16:56.658Z,39.50
2019-01-20T16:19:30.176Z,37.73
2019-01-20T16:22:01.445Z,39.40
2019-01-20T16:24:34.773Z,41.20
2019-01-20T16:27:07.213Z,47.83
2019-01-20T16:29:39.509Z,47.50
2019-01-20T16:32:12.145Z,64.00
2019-01-20T16:34:44.681Z,56.10
2019-01-20T16:37:17.033Z,50.80
2019-01-20T16:39:49.190Z,48.20
2019-01-20T16:42:20.635Z,47.97
2019-01-20T16:44:54.184Z,60.70
2019-01-20T16:47:25.460Z,53.30
2019-01-20T16:49:58.847Z,51.90
2019-01-20T16:52:30.241Z,47.10
2019-01-20T16:55:03.611Z,46.50
2019-01-20T16:57:35.167Z,45.87
2019-01-20T17:00:09.271Z,47.43
2019-01-20T17:02:40.793Z,46.63
2019-01-20T17:05:14.131Z,44.30
2019-01-20T17:07:45.326Z,48.77
2019-01-20T17:10:19.966Z,50.33
2019-01-20T17:12:51.470Z,50.80
2019-01-20T17:15:26.024Z,49.87
2019-01-20T17:18:00.563Z,48.97
2019-01-20T17:20:34.007Z,56.53
2019-01-20T17:23:05.540Z,46.37
2019-01-20T17:25:38.892Z,44.13
2019-01-20T17:28:11.236Z,49.10
2019-01-20T17:30:43.645Z,40.80
2019-01-20T17:33:16.194Z,46.80
2019-01-20T17:35:48.371Z,46.80
2019-01-20T17:38:20.811Z,44.80
2019-01-20T17:40:53.339Z,44.23
2019-01-20T17:43:24.628Z,42.83
2019-01-20T17:45:57.873Z,44.03
2019-01-20T17:48:29.182Z,48.43
2019-01-20T17:51:02.579Z,71.23
2019-01-20T17:53:34.158Z,50.27
2019-01-20T17:56:07.454Z,44.97
2019-01-20T17:58:38.912Z,46.13
2019-01-20T18:01:12.389Z,48.97
2019-01-20T18:03:43.940Z,47.60
2019-01-20T18:06:17.854Z,47.87
2019-01-20T18:08:49.149Z,48.90
2019-01-20T18:11:22.450Z,50.03
2019-01-20T18:13:53.879Z,51.13
2019-01-20T18:16:27.475Z,53.17
2019-01-20T18:18:58.872Z,47.80
2019-01-20T18:21:32.454Z,48.47
2019-01-20T18:24:04.057Z,47.60
2019-01-20T18:26:37.859Z,45.57
2019-01-20T18:29:09.268Z,50.57
2019-01-20T18:31:42.766Z,43.67
2019-01-20T18:34:14.376Z,45.93
2019-01-20T18:36:47.727Z,44.90
2019-01-20T18:39:19.125Z,50.57
2019-01-20T18:41:52.685Z,61.33
2019-01-20T18:44:24.753Z,50.00
2019-01-20T18:46:58.245Z,48.53
2019-01-20T18:49:29.525Z,50.07
2019-01-20T18:52:02.891Z,47.70
2019-01-20T18:54:34.192Z,52.23
2019-01-20T18:57:07.359Z,60.83
2019-01-20T18:59:39.670Z,57.40
2019-01-20T19:02:13.094Z,58.33
2019-01-20T19:04:44.463Z,48.20
2019-01-20T19:07:17.842Z,51.47
2019-01-20T19:09:49.154Z,47.43
2019-01-20T19:12:22.582Z,48.90
2019-01-20T19:14:53.931Z,50.80
2019-01-20T19:17:27.335Z,64.67
2019-01-20T19:19:58.624Z,66.77
2019-01-20T19:22:32.082Z,56.73
2019-01-20T19:25:03.475Z,64.07
2019-01-20T19:27:37.012Z,51.80
2019-01-20T19:30:10.751Z,58.50
2019-01-20T19:32:44.026Z,61.60
2019-01-20T19:35:15.679Z,61.43
2019-01-20T19:37:48.980Z,63.37
2019-01-20T19:40:20.475Z,61.10
2019-01-20T19:42:54.111Z,53.90
2019-01-20T19:45:25.869Z,55.20
2019-01-20T19:47:59.612Z,58.07
2019-01-20T19:50:31.089Z,58.57
2019-01-20T19:53:04.643Z,66.40
2019-01-20T19:55:37.649Z,70.73
2019-01-20T19:58:10.061Z,60.50
2019-01-20T20:00:43.175Z,59.13
2019-01-20T20:03:15.491Z,57.53
2019-01-20T20:05:47.983Z,62.30
2019-01-20T20:08:20.290Z,68.17
2019-01-20T20:10:53.274Z,65.43
2019-01-20T20:13:25.840Z,70.87
2019-01-20T20:15:57.259Z,63.13
2019-01-20T20:18:30.559Z,64.13
2019-01-20T20:21:01.959Z,63.23
2019-01-20T20:23:35.474Z,59.93
2019-01-20T20:26:06.827Z,61.80
2019-01-20T20:28:41.361Z,64.00
2019-01-20T20:31:15.735Z,60.17
2019-01-20T20:33:49.131Z,63.03
2019-01-20T20:36:20.570Z,52.57
2019-01-20T20:38:54.760Z,54.50
2019-01-20T20:41:26.223Z,53.27
2019-01-20T20:43:59.702Z,53.53
2019-01-20T20:46:31.441Z,51.73
2019-01-20T20:49:04.640Z,62.83
2019-01-20T20:51:36.136Z,63.90
2019-01-20T20:54:09.493Z,62.00
2019-01-20T20:56:40.705Z,63.93
2019-01-20T20:59:14.194Z,65.90
2019-01-20T21:01:45.696Z,67.00
2019-01-20T21:04:19.116Z,66.97
2019-01-20T21:06:50.515Z,62.83
2019-01-20T21:09:23.603Z,67.67
2019-01-20T21:11:54.902Z,68.10
2019-01-20T21:14:28.392Z,63.80
2019-01-20T21:17:00.016Z,58.20
2019-01-20T21:19:33.257Z,55.50
2019-01-20T21:22:04.358Z,56.33
2019-01-20T21:24:37.666Z,61.93
2019-01-20T21:27:09.287Z,58.73
2019-01-20T21:29:42.690Z,52.80
2019-01-20T21:32:13.927Z,53.43
2019-01-20T21:34:47.437Z,52.40
2019-01-20T21:37:19.083Z,53.60
2019-01-20T21:39:52.453Z,54.87
2019-01-20T21:42:23.882Z,62.17
2019-01-20T21:44:57.306Z,60.00
2019-01-20T21:47:28.784Z,60.00
2019-01-20T21:50:02.087Z,63.70
2019-01-20T21:52:33.384Z,63.53
2019-01-20T21:55:07.642Z,62.83
2019-01-20T21:57:39.401Z,55.17
2019-01-20T22:00:14.200Z,61.47
2019-01-20T22:02:45.689Z,62.60
2019-01-20T22:05:18.947Z,69.23
2019-01-20T22:07:50.524Z,63.43
2019-01-20T22:10:24.106Z,63.50
2019-01-20T22:12:55.761Z,68.00
2019-01-20T22:15:29.166Z,62.57
2019-01-20T22:18:00.333Z,58.73
2019-01-20T22:20:33.941Z,59.20
2019-01-20T22:23:05.160Z,56.87
2019-01-20T22:25:38.866Z,53.33
2019-01-20T22:28:10.641Z,57.23
2019-01-20T22:30:43.974Z,53.97
2019-01-20T22:33:15.409Z,51.80
2019-01-20T22:35:49.145Z,45.70
2019-01-20T22:38:20.522Z,39.90
2019-01-20T22:40:53.653Z,40.83
2019-01-20T22:43:25.183Z,41.13
2019-01-20T22:45:58.794Z,41.70
2019-01-20T22:48:30.224Z,39.70
2019-01-20T22:51:03.773Z,37.50
2019-01-20T22:53:34.988Z,33.73
2019-01-20T22:56:09.600Z,36.30
2019-01-20T22:58:43.965Z,37.13
2019-01-20T23:01:20.467Z,36.27
2019-01-20T23:03:51.767Z,34.83
2019-01-20T23:06:25.153Z,36.13
2019-01-20T23:08:56.589Z,37.53
2019-01-20T23:11:30.578Z,30.57
2019-01-20T23:14:03.359Z,30.63
2019-01-20T23:16:36.690Z,31.00
2019-01-20T23:19:07.848Z,26.63
2019-01-20T23:21:41.190Z,28.87
2019-01-20T23:24:12.468Z,27.50
2019-01-20T23:26:45.778Z,26.37
2019-01-20T23:29:17.144Z,28.13
2019-01-20T23:31:50.516Z,25.40
2019-01-20T23:34:21.918Z,24.50
2019-01-20T23:36:55.232Z,22.73
2019-01-20T23:39:26.513Z,25.00
2019-01-20T23:42:00.001Z,26.40
2019-01-20T23:44:31.209Z,26.43
2019-01-20T23:47:04.524Z,29.50
2019-01-20T23:49:35.678Z,26.80
2019-01-20T23:52:08.925Z,26.60
2019-01-20T23:54:40.174Z,29.17
2019-01-20T23:57:13.486Z,31.00
2019-01-20T23:59:44.897Z,30.10
